Littleton, CO (80127)

4:23 PM MDT on August 28, 2016 (GMT -0600)
Gus's Weather | | Change Station

Elev 6864 ft 39.47 °N, 105.16 °W | Updated 22 seconds ago

Thunderstorm
Thunderstorm
56.5 °F
Feels Like 56.5 °F
N
0.0
Wind Variable Wind from North
Gusts 0.0 mph

Today
High -- | Low -- °F
--% Chance of Precip.
Yesterday
High -- | Low -- °F
Precip. -- in
Pressure 29.99 in
Visibility 10.0 miles
Clouds Scattered Clouds 8000 ft
Mostly Cloudy 14000 ft
Mostly Cloudy 22000 ft
Dew Point 46 °F
Humidity 67%
Rainfall 0.00 in
Snow Depth Not available.
6:25 AM 7:36 PM
Waning Crescent, 13% visible
METAR KAPA 282153Z COR 18015G32KT 10SM TS SCT080CB BKN140 BKN220 24/04 A3019 RMK AO2 PK WND 18032/2144 TSB41 SLP153 OCNL LTGICCG VC SW AND DSNT SE-SW TS VC SW MOV NE VIRGA SE-SW CB DSNT SE-SW MOV NE T02390039
Pressure 29.99 in
Visibility 10.0 miles
Clouds Scattered Clouds 8000 ft
Mostly Cloudy 14000 ft
Mostly Cloudy 22000 ft
Dew Point 46 °F
Humidity 67%
Rainfall 0.00 in
Snow Depth Not available.
6:25 AM 7:36 PM
Waning Crescent, 13% visible
METAR KAPA 282153Z COR 18015G32KT 10SM TS SCT080CB BKN140 BKN220 24/04 A3019 RMK AO2 PK WND 18032/2144 TSB41 SLP153 OCNL LTGICCG VC SW AND DSNT SE-SW TS VC SW MOV NE VIRGA SE-SW CB DSNT SE-SW MOV NE T02390039

10-Day Weather Forecast

Almanac

Astronomy

Aug. 28, 2016 Rise Set
Actual Time
Civil Twilight
Nautical Twilight
Astronomical Twilight
Moon
Length of Visible Light
Length of Day
Tomorrow will be .
, % of the Moon is Illuminated

Today's Extremes

State Highs State Lows

Community

WunderPhotos

Upload Photos

1,935,705 photos uploaded!

WunderBlog® & News

Nearby

Air Quality

  Air Quality AQ Index Pollutant
Not available.

Snow Depth

Station Depth Elevation

Earthquake Activity

City Distance Mag. Time & Date
Minimum magnitude displayed is 2.5.

Coastal Water Temperatures

Place Temperature

Stations

Nearby Weather Stations

Station Location Temp. Windchill Dew Point Humidity Wind Precip. Elev Updated Type
                   

Watches & Warnings

There are currently no watches in effect.